TimeEST,TemperatureF,Dew PointF,Humidity,Sea Level PressureIn,VisibilityMPH,Wind Direction,Wind SpeedMPH,Gust SpeedMPH,PrecipitationIn,Events,Conditions,WindDirDegrees,DateUTC
12:15 AM,62.6,46.4,55,29.77,10.0,SSE,4.6,-,N/A,,Clear,150,2013-01-30 05:15:00
12:35 AM,60.8,46.4,59,29.74,10.0,SSE,6.9,-,N/A,,Clear,150,2013-01-30 05:35:00
12:55 AM,60.8,46.4,59,29.73,10.0,SSE,3.5,-,N/A,,Clear,160,2013-01-30 05:55:00
1:15 AM,60.8,46.4,59,29.72,10.0,South,4.6,-,N/A,,Clear,180,2013-01-30 06:15:00
1:35 AM,62.6,46.4,55,29.70,10.0,SE,6.9,-,N/A,,Clear,140,2013-01-30 06:35:00
1:55 AM,62.6,46.4,55,29.69,10.0,SE,4.6,-,N/A,,Clear,140,2013-01-30 06:55:00
2:15 AM,62.6,46.4,55,29.67,10.0,SE,6.9,-,N/A,,Clear,140,2013-01-30 07:15:00
2:35 AM,62.6,48.2,59,29.66,10.0,South,6.9,-,N/A,,Clear,170,2013-01-30 07:35:00
2:55 AM,62.6,48.2,59,29.66,10.0,SSE,5.8,-,N/A,,Clear,160,2013-01-30 07:55:00
3:15 AM,62.6,48.2,59,29.65,10.0,South,5.8,-,N/A,,Clear,170,2013-01-30 08:15:00
3:35 AM,62.6,50.0,63,29.63,10.0,South,8.1,17.3,N/A,,Clear,190,2013-01-30 08:35:00
3:55 AM,62.6,50.0,63,29.61,10.0,South,6.9,-,N/A,,Clear,180,2013-01-30 08:55:00
4:15 AM,62.6,50.0,63,29.60,10.0,South,6.9,-,N/A,,Clear,180,2013-01-30 09:15:00
4:35 AM,64.4,50.0,59,29.59,10.0,South,8.1,18.4,N/A,,Clear,170,2013-01-30 09:35:00
4:55 AM,64.4,51.8,64,29.58,10.0,South,8.1,-,N/A,,Clear,190,2013-01-30 09:55:00
5:15 AM,64.4,51.8,64,29.56,10.0,South,5.8,-,N/A,,Clear,170,2013-01-30 10:15:00
5:35 AM,64.4,51.8,64,29.56,10.0,SSW,6.9,-,N/A,,Clear,200,2013-01-30 10:35:00
5:55 AM,64.4,51.8,64,29.53,10.0,South,5.8,17.3,N/A,,Clear,190,2013-01-30 10:55:00
6:15 AM,64.4,51.8,64,29.52,10.0,South,6.9,-,N/A,,Clear,170,2013-01-30 11:15:00
6:35 AM,64.4,51.8,64,29.52,10.0,South,4.6,-,N/A,,Clear,180,2013-01-30 11:35:00
6:55 AM,66.2,51.8,60,29.52,10.0,SSW,5.8,-,N/A,,Scattered Clouds,200,2013-01-30 11:55:00
7:15 AM,68.0,51.8,56,29.49,10.0,SSE,4.6,-,N/A,,Scattered Clouds,160,2013-01-30 12:15:00
7:35 AM,68.0,51.8,56,29.48,10.0,South,9.2,-,N/A,,Scattered Clouds,170,2013-01-30 12:35:00
7:55 AM,68.0,51.8,56,29.47,10.0,South,9.2,16.1,N/A,,Scattered Clouds,180,2013-01-30 12:55:00
8:15 AM,68.0,51.8,56,29.46,10.0,SSE,9.2,20.7,N/A,,Scattered Clouds,160,2013-01-30 13:15:00
8:35 AM,69.8,51.8,53,29.46,10.0,South,10.4,20.7,N/A,,Scattered Clouds,190,2013-01-30 13:35:00
8:55 AM,62.6,55.4,77,29.57,1.5,West,15.0,35.7,N/A,Rain,Heavy Rain,280,2013-01-30 13:55:00
9:15 AM,59.0,55.4,88,29.60,3.0,West,8.1,16.1,N/A,Rain,Rain,280,2013-01-30 14:15:00
9:35 AM,59.0,55.4,88,29.61,4.0,WNW,5.8,-,N/A,Rain,Rain,290,2013-01-30 14:35:00
9:55 AM,59.0,55.4,88,29.60,5.0,Calm,Calm,-,N/A,Rain,Rain,0,2013-01-30 14:55:00
10:15 AM,59.0,55.4,88,29.60,10.0,Calm,Calm,-,N/A,,Scattered Clouds,0,2013-01-30 15:15:00
10:35 AM,59.0,55.4,88,29.63,5.0,SSW,4.6,-,N/A,Rain,Rain,210,2013-01-30 15:35:00
10:55 AM,57.2,55.4,94,29.62,5.0,SSW,5.8,-,N/A,Rain,Light Rain,210,2013-01-30 15:55:00
11:15 AM,57.2,55.4,94,29.62,4.0,SSW,5.8,-,N/A,Rain,Rain,210,2013-01-30 16:15:00
11:35 AM,57.2,53.6,88,29.60,4.0,SSW,3.5,-,N/A,Rain,Rain,210,2013-01-30 16:35:00
11:55 AM,57.2,53.6,88,29.58,3.0,Calm,Calm,-,N/A,Rain,Light Rain,0,2013-01-30 16:55:00
12:15 PM,57.2,55.4,94,29.57,5.0,SSE,4.6,-,N/A,Rain,Light Rain,160,2013-01-30 17:15:00
12:35 PM,57.2,55.4,94,29.56,3.0,SSE,6.9,-,N/A,Rain,Rain,160,2013-01-30 17:35:00
12:55 PM,55.4,53.6,94,29.54,7.0,SSE,5.8,-,N/A,Rain,Rain,150,2013-01-30 17:55:00
1:15 PM,55.4,53.6,94,29.53,5.0,SSE,5.8,-,N/A,Rain,Rain,160,2013-01-30 18:15:00
1:35 PM,55.4,53.6,94,29.52,4.0,SSE,4.6,-,N/A,Rain,Rain,150,2013-01-30 18:35:00
1:55 PM,55.4,53.6,94,29.52,2.5,Calm,Calm,-,N/A,Rain,Heavy Rain,0,2013-01-30 18:55:00
2:15 PM,55.4,53.6,94,29.50,4.0,SE,3.5,-,N/A,Rain,Rain,130,2013-01-30 19:15:00
2:35 PM,55.4,53.6,94,29.49,4.0,SE,3.5,-,N/A,Rain,Rain,130,2013-01-30 19:35:00
2:55 PM,55.4,53.6,94,29.47,4.0,SSE,6.9,-,N/A,Rain,Rain,150,2013-01-30 19:55:00
3:15 PM,55.4,53.6,94,29.45,4.0,SE,6.9,-,N/A,Rain,Rain,130,2013-01-30 20:15:00
3:35 PM,55.4,55.4,100,29.45,4.0,SE,10.4,-,N/A,Rain,Rain,130,2013-01-30 20:35:00
3:55 PM,55.4,53.6,94,29.41,4.0,SSE,10.4,-,N/A,Rain,Rain,150,2013-01-30 20:55:00
4:15 PM,55.4,53.6,94,29.41,7.0,SE,6.9,-,N/A,Rain,Light Rain,140,2013-01-30 21:15:00
4:35 PM,55.4,53.6,94,29.39,5.0,SE,10.4,-,N/A,Rain,Light Rain,130,2013-01-30 21:35:00
4:55 PM,55.4,53.6,94,29.41,7.0,SSW,9.2,-,N/A,Rain,Rain,200,2013-01-30 21:55:00
5:15 PM,55.4,53.6,94,29.39,7.0,SSW,6.9,19.6,N/A,Rain,Light Rain,210,2013-01-30 22:15:00
5:35 PM,55.4,53.6,94,29.39,10.0,SW,10.4,17.3,N/A,Rain,Light Rain,230,2013-01-30 22:35:00
5:55 PM,53.6,51.8,94,29.39,10.0,SW,12.7,17.3,N/A,Rain,Light Rain,220,2013-01-30 22:55:00
6:15 PM,53.6,50.0,88,29.39,7.0,SW,15.0,19.6,N/A,Rain,Rain,230,2013-01-30 23:15:00
6:35 PM,53.6,50.0,88,29.39,7.0,SW,12.7,23.0,N/A,Rain,Light Rain,230,2013-01-30 23:35:00
6:55 PM,51.8,48.2,88,29.39,7.0,SW,16.1,21.9,N/A,Rain,Rain,230,2013-01-30 23:55:00
7:15 PM,51.8,46.4,82,29.40,5.0,SW,13.8,26.5,N/A,Rain,Light Rain,220,2013-01-31 00:15:00
7:35 PM,50.0,44.6,82,29.37,10.0,SSW,6.9,17.3,N/A,Rain,Light Rain,200,2013-01-31 00:35:00
7:55 PM,50.0,44.6,82,29.36,10.0,SSW,6.9,-,N/A,,Scattered Clouds,200,2013-01-31 00:55:00
8:15 PM,50.0,44.6,82,29.34,10.0,SSW,9.2,-,N/A,,Scattered Clouds,200,2013-01-31 01:15:00
8:35 PM,50.0,42.8,76,29.37,10.0,SW,9.2,-,N/A,,Scattered Clouds,230,2013-01-31 01:35:00
8:55 PM,50.0,42.8,76,29.36,10.0,SW,6.9,-,N/A,,Clear,220,2013-01-31 01:55:00
9:15 PM,48.2,42.8,82,29.37,10.0,SW,4.6,-,N/A,,Clear,220,2013-01-31 02:15:00
9:35 PM,48.2,42.8,82,29.34,10.0,SW,8.1,-,N/A,,Clear,230,2013-01-31 02:35:00
9:55 PM,48.2,42.8,82,29.35,10.0,SW,12.7,16.1,N/A,,Clear,220,2013-01-31 02:55:00
10:15 PM,50.0,42.8,76,29.36,10.0,SSW,13.8,19.6,N/A,Rain,Light Rain,210,2013-01-31 03:15:00
10:35 PM,48.2,42.8,82,29.37,4.0,West,13.8,38.0,N/A,Rain,Heavy Rain,260,2013-01-31 03:35:00
10:55 PM,42.8,37.4,81,29.41,7.0,West,11.5,28.8,N/A,Rain,Light Rain,280,2013-01-31 03:55:00
11:15 PM,41.0,35.6,81,29.44,10.0,West,8.1,20.7,N/A,Rain,Light Rain,270,2013-01-31 04:15:00
11:35 PM,41.0,35.6,81,29.46,10.0,West,6.9,18.4,N/A,Rain,Light Rain,270,2013-01-31 04:35:00
11:55 PM,41.0,35.6,81,29.47,10.0,WNW,5.8,-,N/A,Rain,Light Rain,290,2013-01-31 04:55:00